Time;durP1;ratioP1;P1;durP2;ratioP2;P2;SDS_P1;SDS_P2;PMS_P1;PMS_P2;Temp;Humidity;BMP_temperature;BMP_pressure;BME280_temperature;BME280_humidity;BME280_pressure;Samples;Min_cycle;Max_cycle;Signal;HPM_P1;HPM_P2
2021/10/31 00:01:24;;;;;;;30.23;23.00;;;;;;;10.60;61.52;100107.84;4966493;28;20031;-74
2021/10/31 00:03:50;;;;;;;27.58;22.05;;;;;;;10.63;61.47;100115.72;4964035;28;20035;-74
2021/10/31 00:06:15;;;;;;;32.53;23.90;;;;;;;10.65;61.96;100121.88;4967188;28;20125;-74
2021/10/31 00:08:41;;;;;;;26.27;21.17;;;;;;;10.65;61.68;100122.72;4963925;28;20454;-74
2021/10/31 00:11:06;;;;;;;28.08;22.23;;;;;;;10.66;61.37;100128.88;4967195;28;20393;-74
2021/10/31 00:13:32;;;;;;;25.40;20.77;;;;;;;10.72;61.66;100124.41;4960411;28;20027;-72
2021/10/31 00:15:58;;;;;;;26.80;21.38;;;;;;;10.83;61.79;100116.34;4964324;28;20573;-74
2021/10/31 00:18:24;;;;;;;28.27;20.70;;;;;;;10.99;61.68;100117.00;4966199;28;20089;-74
2021/10/31 00:20:49;;;;;;;28.75;20.38;;;;;;;11.17;61.64;100110.56;4964881;28;20031;-74
2021/10/31 00:23:14;;;;;;;26.83;21.75;;;;;;;11.31;61.16;100108.56;4965435;28;20066;-74
2021/10/31 00:25:40;;;;;;;28.20;22.65;;;;;;;11.44;60.53;100111.03;4965366;28;20042;-74
2021/10/31 00:28:05;;;;;;;28.23;21.20;;;;;;;11.51;60.61;100120.59;4931954;28;20027;-74
2021/10/31 00:30:31;;;;;;;26.00;20.50;;;;;;;11.47;60.25;100126.81;4948626;28;20050;-74
2021/10/31 00:32:56;;;;;;;27.30;21.55;;;;;;;11.40;60.01;100126.06;4963715;28;20031;-74
2021/10/31 00:35:22;;;;;;;29.85;21.33;;;;;;;11.32;60.27;100130.59;4966644;28;20450;-74
2021/10/31 00:37:47;;;;;;;27.13;21.45;;;;;;;11.23;60.12;100126.31;4963396;28;20035;-74
2021/10/31 00:40:13;;;;;;;27.42;21.70;;;;;;;11.15;60.20;100133.50;4927020;29;20476;-73
2021/10/31 00:42:39;;;;;;;27.02;21.98;;;;;;;11.08;60.82;100132.72;4965927;28;20039;-74
2021/10/31 00:45:06;;;;;;;28.13;21.95;;;;;;;11.07;60.71;100130.09;4963683;28;20038;-74
2021/10/31 00:47:32;;;;;;;27.30;22.27;;;;;;;11.03;60.99;100139.84;4965867;28;20054;-74
2021/10/31 00:49:57;;;;;;;29.08;22.27;;;;;;;10.99;60.73;100121.41;4964139;28;20030;-74
2021/10/31 00:52:23;;;;;;;29.65;22.27;;;;;;;10.91;61.41;100119.75;4965382;28;20046;-74
2021/10/31 00:54:49;;;;;;;27.08;22.60;;;;;;;10.85;61.52;100127.75;4961828;28;20032;-74
2021/10/31 00:57:14;;;;;;;29.67;22.73;;;;;;;10.82;61.08;100122.53;4971447;28;20030;-74
2021/10/31 00:59:40;;;;;;;28.65;22.20;;;;;;;10.78;61.60;100123.44;4966436;28;20162;-74
2021/10/31 01:02:11;;;;;;;27.05;21.33;;;;;;;10.76;61.08;100127.88;4965323;28;20046;-74
2021/10/31 01:04:41;;;;;;;29.35;23.25;;;;;;;10.69;62.29;100128.88;4963900;28;20102;-74
2021/10/31 01:07:34;;;;;;;26.92;22.25;;;;;;;10.69;62.01;100128.88;4964626;28;20042;-74
2021/10/31 01:10:17;;;;;;;30.02;21.98;;;;;;;10.64;62.12;100120.13;4961158;28;20066;-74
2021/10/31 01:13:01;;;;;;;31.45;23.00;;;;;;;10.61;61.80;100125.44;4963064;28;20047;-74
2021/10/31 01:15:38;;;;;;;28.02;21.48;;;;;;;10.55;62.70;100123.75;4961305;28;20038;-74
2021/10/31 01:18:13;;;;;;;26.67;22.13;;;;;;;10.52;62.59;100127.28;4963808;28;20031;-74
2021/10/31 01:21:02;;;;;;;27.90;23.92;;;;;;;10.50;62.02;100129.06;4965839;28;20077;-74
2021/10/31 01:24:09;;;;;;;30.90;23.67;;;;;;;10.50;62.71;100136.97;4962941;28;20047;-74
2021/10/31 01:27:06;;;;;;;28.23;23.05;;;;;;;10.49;62.34;100142.28;4965965;28;20462;-74
2021/10/31 01:30:08;;;;;;;30.30;23.20;;;;;;;10.47;62.40;100144.06;4965549;28;20111;-74
2021/10/31 01:32:58;;;;;;;28.50;21.92;;;;;;;10.45;62.65;100152.03;4958009;28;20379;-74
2021/10/31 01:35:53;;;;;;;27.40;22.15;;;;;;;10.49;62.56;100153.72;4962287;28;20035;-74
2021/10/31 01:38:46;;;;;;;30.10;23.75;;;;;;;10.52;62.75;100148.41;4963768;28;20095;-74
2021/10/31 01:41:15;;;;;;;29.98;22.15;;;;;;;10.54;62.08;100145.75;4962707;28;20035;-74
2021/10/31 01:43:56;;;;;;;28.58;23.40;;;;;;;10.59;62.57;100143.94;4963170;28;20034;-74
2021/10/31 01:46:44;;;;;;;30.35;23.08;;;;;;;10.65;62.18;100145.63;4958586;28;20043;-75
2021/10/31 01:49:20;;;;;;;28.85;21.80;;;;;;;10.70;62.22;100154.34;4963948;28;20041;-74
2021/10/31 01:51:59;;;;;;;28.65;23.38;;;;;;;10.69;61.61;100157.91;4958110;28;20035;-74
2021/10/31 01:54:45;;;;;;;29.52;22.98;;;;;;;10.68;62.04;100154.34;4960387;28;20031;-73
2021/10/31 01:57:17;;;;;;;30.65;23.08;;;;;;;10.72;61.78;100160.50;4961912;28;20050;-74
2021/10/31 01:59:47;;;;;;;27.67;22.00;;;;;;;10.77;61.94;100165.69;4925844;28;20058;-73
2021/10/31 02:02:17;;;;;;;30.77;24.38;;;;;;;10.77;61.67;100161.31;4947419;28;20514;-74
2021/10/31 02:04:45;;;;;;;28.77;22.77;;;;;;;10.71;61.88;100158.72;4962049;28;20050;-74
2021/10/31 02:07:11;;;;;;;35.40;23.45;;;;;;;10.68;62.10;100164.06;4964568;28;20062;-74
2021/10/31 02:09:40;;;;;;;28.98;22.15;;;;;;;10.63;61.83;100169.38;4961994;28;20589;-74
2021/10/31 02:12:09;;;;;;;29.15;22.13;;;;;;;10.58;61.95;100157.13;4964537;28;20115;-74
2021/10/31 02:14:35;;;;;;;28.95;23.35;;;;;;;10.51;62.06;100156.34;4956899;28;20117;-74
2021/10/31 02:17:02;;;;;;;28.52;22.23;;;;;;;10.48;62.63;100161.66;4960311;28;20050;-74
2021/10/31 02:19:42;;;;;;;30.00;22.92;;;;;;;10.45;62.33;100154.66;4958899;28;20031;-74
2021/10/31 02:22:10;;;;;;;32.10;24.08;;;;;;;10.44;62.74;100155.53;4961363;28;20046;-74
2021/10/31 02:24:36;;;;;;;29.30;23.30;;;;;;;10.42;62.55;100162.59;4962887;28;20046;-74
2021/10/31 02:27:18;;;;;;;29.60;23.55;;;;;;;10.42;63.13;100161.72;4963309;28;20034;-74
2021/10/31 02:29:49;;;;;;;29.77;23.42;;;;;;;10.44;63.00;100159.94;4964933;28;20086;-75
2021/10/31 02:32:16;;;;;;;28.52;22.77;;;;;;;10.45;62.60;100162.56;4957760;28;20035;-74
2021/10/31 02:34:41;;;;;;;26.55;22.20;;;;;;;10.42;63.04;100162.59;4957220;28;20039;-74
2021/10/31 02:37:06;;;;;;;29.52;23.23;;;;;;;10.44;63.17;100158.16;4964597;28;20050;-75
2021/10/31 02:39:32;;;;;;;28.23;22.92;;;;;;;10.45;62.79;100156.41;4961756;28;20458;-74
2021/10/31 02:41:58;;;;;;;29.55;22.65;;;;;;;10.47;62.96;100154.63;4963856;28;20417;-74
2021/10/31 02:44:23;;;;;;;31.60;25.50;;;;;;;10.51;63.31;100157.22;4961148;28;20413;-74
2021/10/31 02:46:49;;;;;;;31.45;23.42;;;;;;;10.55;63.62;100154.53;4963120;28;20414;-74
2021/10/31 02:49:14;;;;;;;28.95;22.33;;;;;;;10.68;62.74;100156.13;4962924;28;20494;-74
2021/10/31 02:52:04;;;;;;;29.00;24.15;;;;;;;10.78;63.26;100157.75;4945171;28;20070;-73
2021/10/31 02:54:53;;;;;;;28.23;23.38;;;;;;;10.89;62.13;100153.22;4958010;28;20070;-73
2021/10/31 02:57:26;;;;;;;28.33;22.88;;;;;;;10.95;62.30;100152.25;4961396;28;20043;-74
2021/10/31 02:59:56;;;;;;;30.58;23.17;;;;;;;11.01;62.21;100146.03;4957388;28;20098;-74
2021/10/31 03:02:25;;;;;;;30.45;23.25;;;;;;;11.02;62.37;100150.41;4957579;28;20045;-75
2021/10/31 03:04:50;;;;;;;30.92;25.05;;;;;;;10.99;62.14;100147.81;4964025;28;20086;-75
2021/10/31 03:07:16;;;;;;;30.98;24.02;;;;;;;10.94;61.92;100155.78;4961247;28;20063;-74
2021/10/31 03:09:46;;;;;;;31.92;26.08;;;;;;;10.87;62.60;100167.31;4964393;28;20093;-75
2021/10/31 03:12:11;;;;;;;30.90;24.17;;;;;;;10.80;62.89;100173.59;4957226;28;20043;-74
2021/10/31 03:14:37;;;;;;;30.48;23.92;;;;;;;10.79;62.63;100171.84;4924508;29;20050;-75
2021/10/31 03:17:04;;;;;;;30.25;24.52;;;;;;;10.79;62.45;100170.06;4960434;28;20043;-75
2021/10/31 03:19:30;;;;;;;27.55;23.17;;;;;;;10.74;62.81;100188.63;4963807;28;20543;-75
2021/10/31 03:21:56;;;;;;;31.85;24.83;;;;;;;10.74;63.29;100185.97;4961533;28;20084;-75
2021/10/31 03:24:21;;;;;;;32.22;25.10;;;;;;;10.72;63.34;100193.03;4962798;28;20071;-75
2021/10/31 03:26:47;;;;;;;30.45;24.20;;;;;;;10.70;63.47;100188.66;4962202;28;20120;-75
2021/10/31 03:29:13;;;;;;;31.13;24.38;;;;;;;10.61;63.50;100184.38;4962591;28;20414;-75
2021/10/31 03:31:38;;;;;;;31.83;25.13;;;;;;;10.47;63.58;100178.38;4962463;28;20031;-75
2021/10/31 03:34:03;;;;;;;29.60;23.65;;;;;;;10.38;64.33;100182.00;4961280;28;20509;-75
2021/10/31 03:36:29;;;;;;;32.83;26.45;;;;;;;10.28;64.37;100182.97;4961483;28;20410;-75
2021/10/31 03:38:54;;;;;;;30.85;25.05;;;;;;;10.18;65.04;100179.53;4963760;28;20081;-75
2021/10/31 03:41:19;;;;;;;29.30;24.10;;;;;;;10.12;65.14;100184.00;4960598;28;20066;-75
2021/10/31 03:43:45;;;;;;;31.13;25.88;;;;;;;10.06;64.88;100195.47;4963851;28;20401;-75
2021/10/31 03:46:10;;;;;;;31.35;24.10;;;;;;;9.98;65.22;100198.19;4960890;28;20398;-75
2021/10/31 03:48:36;;;;;;;30.83;24.65;;;;;;;9.94;65.85;100216.69;4963606;28;20509;-75
2021/10/31 03:51:01;;;;;;;32.08;26.02;;;;;;;9.86;65.86;100214.97;4961398;28;20051;-75
2021/10/31 03:53:26;;;;;;;33.63;26.02;;;;;;;9.78;66.59;100221.22;4929761;28;20071;-75
2021/10/31 03:55:52;;;;;;;31.90;25.15;;;;;;;9.75;66.55;100221.22;4963340;28;20046;-75
2021/10/31 03:58:17;;;;;;;31.85;25.23;;;;;;;9.76;66.87;100222.97;4965665;28;20493;-75
2021/10/31 04:00:43;;;;;;;31.05;26.10;;;;;;;9.73;67.20;100229.13;4966092;28;20050;-75
2021/10/31 04:03:10;;;;;;;32.38;25.05;;;;;;;9.79;66.60;100229.09;4964739;28;20079;-75
2021/10/31 04:05:36;;;;;;;30.65;24.67;;;;;;;9.91;66.99;100228.13;4966442;28;20038;-75
2021/10/31 04:08:01;;;;;;;30.02;24.75;;;;;;;9.97;66.83;100228.06;4964413;28;20046;-75
2021/10/31 04:10:27;;;;;;;32.22;25.23;;;;;;;10.00;66.66;100232.44;4967137;28;20031;-75
2021/10/31 04:12:52;;;;;;;31.83;25.67;;;;;;;10.00;66.75;100228.03;4963253;28;20433;-75
2021/10/31 04:15:19;;;;;;;31.40;24.63;;;;;;;10.00;66.68;100214.84;4960489;28;20030;-76
2021/10/31 04:17:44;;;;;;;32.22;25.75;;;;;;;10.00;67.01;100213.97;4966866;28;20035;-75
2021/10/31 04:20:10;;;;;;;33.65;27.70;;;;;;;10.00;66.23;100204.31;4964269;28;20068;-75
2021/10/31 04:22:36;;;;;;;34.92;27.45;;;;;;;9.97;67.24;100212.25;4965828;28;20034;-75
2021/10/31 04:25:03;;;;;;;33.70;27.83;;;;;;;9.98;67.05;100224.56;4964725;28;20038;-75
2021/10/31 04:27:29;;;;;;;34.10;27.17;;;;;;;10.01;66.44;100213.09;4965771;28;20082;-75
2021/10/31 04:29:54;;;;;;;34.75;26.90;;;;;;;10.00;66.60;100220.13;4965084;28;20413;-75
2021/10/31 04:32:19;;;;;;;33.72;25.42;;;;;;;9.99;66.91;100218.38;4964883;28;20561;-75
2021/10/31 04:34:44;;;;;;;33.70;27.33;;;;;;;9.97;66.59;100233.34;4965419;28;20517;-75
2021/10/31 04:37:10;;;;;;;33.58;26.52;;;;;;;9.95;66.75;100229.81;4964065;28;20410;-75
2021/10/31 04:39:35;;;;;;;34.50;28.30;;;;;;;9.93;66.99;100230.72;4966372;28;20134;-75
2021/10/31 04:42:03;;;;;;;37.92;29.27;;;;;;;9.90;67.42;100231.63;4963386;28;20042;-75
2021/10/31 04:44:29;;;;;;;35.47;27.60;;;;;;;9.89;66.81;100229.88;4966254;28;20085;-75
2021/10/31 04:46:55;;;;;;;35.58;28.27;;;;;;;9.88;66.93;100220.25;4963230;28;20049;-74
2021/10/31 04:49:20;;;;;;;36.42;29.40;;;;;;;9.89;66.50;100219.34;4966576;28;20484;-75
2021/10/31 04:51:45;;;;;;;34.13;28.88;;;;;;;9.91;67.25;100227.25;4963346;28;20112;-75
2021/10/31 04:54:11;;;;;;;35.78;29.35;;;;;;;9.90;67.19;100226.34;4965612;28;20030;-75
2021/10/31 04:56:36;;;;;;;34.67;28.48;;;;;;;9.91;67.33;100222.84;4946973;28;20065;-75
2021/10/31 04:59:01;;;;;;;36.70;29.45;;;;;;;9.94;67.31;100224.59;4964332;28;20035;-75
2021/10/31 05:01:27;;;;;;;32.55;27.42;;;;;;;9.93;67.31;100225.47;4963815;28;20031;-75
2021/10/31 05:03:52;;;;;;;32.92;28.13;;;;;;;9.91;67.05;100225.50;4964348;28;20066;-75
2021/10/31 05:06:18;;;;;;;35.08;28.02;;;;;;;9.92;67.26;100229.84;4947971;28;20147;-75
2021/10/31 05:08:43;;;;;;;35.17;28.83;;;;;;;9.88;67.28;100215.84;4962661;28;20050;-75
2021/10/31 05:11:09;;;;;;;34.42;27.27;;;;;;;9.88;67.37;100220.25;4965932;28;20038;-75
2021/10/31 05:13:34;;;;;;;36.60;29.23;;;;;;;9.90;66.59;100225.50;4962488;28;20030;-75
2021/10/31 05:15:59;;;;;;;35.42;29.27;;;;;;;9.88;66.59;100222.88;4966200;28;20037;-75
2021/10/31 05:18:25;;;;;;;36.88;30.08;;;;;;;9.86;67.12;100227.28;4962847;28;20524;-75
2021/10/31 05:20:50;;;;;;;37.38;30.67;;;;;;;9.84;67.11;100214.09;4965268;28;20066;-75
2021/10/31 05:23:15;;;;;;;37.22;29.80;;;;;;;9.83;67.21;100216.78;4962568;28;20091;-75
2021/10/31 05:25:41;;;;;;;36.90;30.48;;;;;;;9.81;66.63;100215.91;4963767;28;20034;-75
2021/10/31 05:28:06;;;;;;;37.03;30.00;;;;;;;9.82;66.83;100217.63;4964255;28;20031;-75
2021/10/31 05:30:31;;;;;;;37.72;30.15;;;;;;;9.81;66.78;100213.28;4964353;28;20041;-75
2021/10/31 05:32:57;;;;;;;35.58;29.23;;;;;;;9.78;67.13;100223.84;4963143;28;20050;-75
2021/10/31 05:35:22;;;;;;;37.30;29.80;;;;;;;9.77;67.50;100229.97;4964959;28;20429;-74
2021/10/31 05:37:54;;;;;;;40.13;32.15;;;;;;;9.73;67.34;100234.41;4962622;28;20496;-75
2021/10/31 05:40:19;;;;;;;39.75;32.95;;;;;;;9.71;67.52;100235.31;4964881;28;20445;-75
2021/10/31 05:42:44;;;;;;;38.47;31.52;;;;;;;9.66;67.65;100225.66;4962371;28;20035;-74
2021/10/31 05:45:11;;;;;;;39.97;32.20;;;;;;;9.64;67.26;100222.19;4965273;28;20054;-75
2021/10/31 05:47:38;;;;;;;37.53;29.77;;;;;;;9.63;67.28;100220.41;4962019;28;20031;-75
2021/10/31 05:50:08;;;;;;;43.67;32.90;;;;;;;9.62;67.38;100217.81;4958210;28;20051;-75
2021/10/31 05:52:35;;;;;;;35.80;30.25;;;;;;;9.62;68.06;100218.69;4958492;28;20039;-75
2021/10/31 05:55:00;;;;;;;39.78;32.15;;;;;;;9.64;68.02;100211.66;4965381;28;20129;-75
2021/10/31 05:57:29;;;;;;;38.58;30.25;;;;;;;9.62;68.22;100225.72;4957972;28;20557;-75
2021/10/31 05:59:54;;;;;;;38.83;31.55;;;;;;;9.62;68.20;100216.03;4958016;28;20082;-75
2021/10/31 06:02:19;;;;;;;44.70;33.97;;;;;;;9.66;68.21;100217.75;4964816;28;20467;-75
2021/10/31 06:04:46;;;;;;;39.13;30.50;;;;;;;9.73;67.87;100220.38;4961947;28;20047;-75
2021/10/31 06:07:11;;;;;;;39.33;30.92;;;;;;;9.75;67.58;100232.66;4964441;28;20138;-75
2021/10/31 06:09:37;;;;;;;40.00;32.03;;;;;;;9.76;67.86;100229.09;4962786;28;20121;-75
2021/10/31 06:12:07;;;;;;;38.22;31.55;;;;;;;9.80;68.08;100229.97;4960716;28;20126;-75
2021/10/31 06:14:34;;;;;;;33.97;28.52;;;;;;;9.86;68.07;100229.91;4962478;28;20039;-75
2021/10/31 06:17:01;;;;;;;40.30;32.22;;;;;;;9.85;67.49;100234.31;4963743;28;20098;-74
2021/10/31 06:19:27;;;;;;;38.30;30.33;;;;;;;9.87;67.55;100229.03;4945459;28;20035;-75
2021/10/31 06:21:52;;;;;;;41.58;31.33;;;;;;;9.87;68.10;100235.16;4963164;28;20046;-75
2021/10/31 06:24:17;;;;;;;41.45;33.45;;;;;;;9.89;68.18;100237.81;4963230;28;20039;-75
2021/10/31 06:26:43;;;;;;;42.05;32.78;;;;;;;9.91;68.04;100237.81;4962451;28;20413;-74
2021/10/31 06:29:08;;;;;;;40.25;32.28;;;;;;;9.96;67.27;100238.63;4964208;28;20062;-75
2021/10/31 06:31:34;;;;;;;38.90;29.77;;;;;;;9.99;67.33;100236.84;4961545;28;20418;-75
2021/10/31 06:33:59;;;;;;;36.95;30.98;;;;;;;10.04;67.74;100240.31;4964470;28;20081;-74
2021/10/31 06:36:24;;;;;;;37.63;29.50;;;;;;;10.08;67.38;100244.66;4958472;28;20494;-75
2021/10/31 06:38:50;;;;;;;42.13;32.15;;;;;;;10.12;67.08;100248.16;4964384;28;20110;-75
2021/10/31 06:41:15;;;;;;;36.67;29.90;;;;;;;10.15;66.71;100237.56;4961709;28;20039;-75
2021/10/31 06:43:41;;;;;;;36.92;30.45;;;;;;;10.13;66.92;100241.97;4963388;28;20125;-75
2021/10/31 06:46:06;;;;;;;35.17;29.05;;;;;;;10.16;67.49;100239.31;4962253;28;20038;-75
2021/10/31 06:48:32;;;;;;;33.58;28.52;;;;;;;10.20;67.35;100245.47;4963079;28;20734;-75
2021/10/31 06:50:57;;;;;;;37.95;30.02;;;;;;;10.22;66.79;100255.09;4962971;28;20042;-75
2021/10/31 06:53:23;;;;;;;37.50;29.05;;;;;;;10.24;66.92;100252.44;4962063;28;20528;-75
2021/10/31 06:55:48;;;;;;;38.13;30.67;;;;;;;10.25;67.11;100248.94;4963722;28;20401;-75
2021/10/31 06:58:14;;;;;;;37.58;29.25;;;;;;;10.30;67.58;100252.44;4960859;28;20031;-74
2021/10/31 07:00:39;;;;;;;36.05;29.17;;;;;;;10.36;67.66;100254.13;4964162;28;20046;-75
2021/10/31 07:03:04;;;;;;;39.50;31.42;;;;;;;10.41;67.06;100261.09;4961092;28;20035;-74
2021/10/31 07:05:30;;;;;;;39.58;32.30;;;;;;;10.49;66.76;100259.25;4964277;28;20039;-75
2021/10/31 07:07:55;;;;;;;43.88;31.92;;;;;;;10.57;66.57;100263.59;4961363;28;20027;-75
2021/10/31 07:10:20;;;;;;;45.42;30.00;;;;;;;10.62;66.35;100269.69;4963751;28;20039;-75
2021/10/31 07:12:46;;;;;;;42.13;30.23;;;;;;;10.66;65.97;100263.47;4961650;28;20414;-75
2021/10/31 07:15:12;;;;;;;44.35;29.05;;;;;;;10.70;66.14;100268.72;4960755;28;20035;-74
2021/10/31 07:17:38;;;;;;;38.53;30.65;;;;;;;10.74;65.90;100266.91;4962644;28;20075;-75
2021/10/31 07:20:05;;;;;;;42.42;29.25;;;;;;;10.83;65.31;100268.59;4945543;28;20043;-74
2021/10/31 07:22:30;;;;;;;38.90;29.27;;;;;;;10.91;65.87;100270.25;4962015;28;20077;-75
2021/10/31 07:24:56;;;;;;;34.67;28.10;;;;;;;11.01;65.23;100271.00;4962900;28;20066;-75
2021/10/31 07:27:22;;;;;;;37.38;29.90;;;;;;;11.11;64.96;100274.44;4960665;28;20042;-75
2021/10/31 07:29:48;;;;;;;35.75;29.73;;;;;;;11.19;64.65;100267.28;4961243;28;20109;-75
2021/10/31 07:32:13;;;;;;;36.25;29.85;;;;;;;11.27;64.42;100264.53;4963430;28;20031;-75
2021/10/31 07:34:39;;;;;;;35.08;29.75;;;;;;;11.35;64.38;100270.59;4967830;28;20440;-75
2021/10/31 07:37:05;;;;;;;37.65;30.60;;;;;;;11.43;64.77;100270.47;4964399;28;20051;-75
2021/10/31 07:39:32;;;;;;;34.85;28.17;;;;;;;11.48;64.01;100282.72;4967673;28;20031;-75
2021/10/31 07:41:57;;;;;;;36.65;30.15;;;;;;;11.54;64.21;100279.13;4964714;28;20049;-75
2021/10/31 07:44:23;;;;;;;35.35;28.73;;;;;;;11.59;63.46;100278.16;4966516;28;20051;-75
2021/10/31 07:46:48;;;;;;;34.17;28.85;;;;;;;11.62;63.49;100282.53;4965370;28;20118;-75
2021/10/31 07:49:13;;;;;;;33.28;26.88;;;;;;;11.65;63.41;100269.25;4966301;28;20063;-75
2021/10/31 07:51:39;;;;;;;36.72;30.90;;;;;;;11.67;63.05;100264.84;4965992;28;20030;-75
2021/10/31 07:54:05;;;;;;;36.53;31.08;;;;;;;11.64;63.58;100270.16;4965197;28;20074;-75
2021/10/31 07:56:32;;;;;;;34.72;28.15;;;;;;;11.67;63.82;100277.19;4966663;28;20042;-75
2021/10/31 07:58:57;;;;;;;34.75;29.48;;;;;;;11.69;63.28;100273.63;4964912;28;20146;-75
2021/10/31 08:01:24;;;;;;;35.22;30.20;;;;;;;11.69;63.51;100281.56;4966724;28;20050;-75
2021/10/31 08:03:51;;;;;;;34.72;28.88;;;;;;;11.72;63.23;100278.84;4964043;28;20414;-75
2021/10/31 08:06:17;;;;;;;38.70;30.00;;;;;;;11.71;63.29;100277.13;4966567;28;20045;-75
2021/10/31 08:08:42;;;;;;;34.80;28.63;;;;;;;11.74;63.44;100282.34;4961671;28;20502;-75
2021/10/31 08:11:07;;;;;;;37.85;29.60;;;;;;;11.80;63.23;100279.63;4967331;28;20038;-75
2021/10/31 08:13:33;;;;;;;38.63;29.85;;;;;;;11.80;62.77;100282.25;4963749;28;20039;-75
2021/10/31 08:15:58;;;;;;;36.40;29.20;;;;;;;11.89;62.66;100283.03;4966608;28;20047;-75
2021/10/31 08:18:24;;;;;;;37.65;28.92;;;;;;;11.96;62.80;100280.28;4964761;28;20421;-75
2021/10/31 08:20:49;;;;;;;40.72;29.70;;;;;;;12.04;62.55;100280.16;4965782;28;20406;-75
2021/10/31 08:23:15;;;;;;;33.38;27.92;;;;;;;12.15;62.39;100278.19;4965057;28;20207;-75
2021/10/31 08:25:45;;;;;;;37.33;29.33;;;;;;;12.20;62.48;100271.06;4965140;28;20043;-75
2021/10/31 08:28:12;;;;;;;34.70;28.42;;;;;;;12.24;62.19;100272.78;4965243;28;20035;-75
2021/10/31 08:30:39;;;;;;;36.13;28.30;;;;;;;12.28;62.17;100263.00;4965116;28;20043;-75
2021/10/31 08:33:18;;;;;;;35.83;27.40;;;;;;;12.34;61.70;100262.00;4965106;28;20042;-75
2021/10/31 08:35:44;;;;;;;32.05;26.98;;;;;;;12.43;61.84;100257.44;4933735;28;20034;-75
2021/10/31 08:38:10;;;;;;;36.17;27.70;;;;;;;12.48;61.32;100260.00;4964162;28;20031;-75
2021/10/31 08:40:36;;;;;;;35.75;27.92;;;;;;;12.55;61.30;100253.72;4965752;28;20054;-75
2021/10/31 08:43:01;;;;;;;34.15;27.65;;;;;;;12.68;60.79;100257.88;4964195;28;20035;-75
2021/10/31 08:45:27;;;;;;;36.20;27.58;;;;;;;12.81;60.97;100254.97;4965112;28;20038;-75
2021/10/31 08:47:52;;;;;;;35.60;25.48;;;;;;;12.87;60.63;100245.13;4965334;28;20046;-75
2021/10/31 08:50:17;;;;;;;33.15;26.67;;;;;;;12.96;60.32;100241.41;4964447;28;20043;-75
2021/10/31 08:52:43;;;;;;;33.00;27.95;;;;;;;13.04;60.34;100231.53;4965458;28;20046;-75
2021/10/31 08:55:08;;;;;;;33.50;27.80;;;;;;;13.09;60.35;100228.78;4963455;28;20039;-75
2021/10/31 08:57:34;;;;;;;35.45;27.67;;;;;;;13.15;60.03;100232.19;4966311;28;20034;-75
2021/10/31 08:59:59;;;;;;;32.60;26.38;;;;;;;13.23;60.35;100225.81;4963050;28;20043;-75
2021/10/31 09:02:26;;;;;;;34.67;27.48;;;;;;;13.25;59.48;100226.66;4966175;28;20038;-75
2021/10/31 09:04:51;;;;;;;31.02;27.05;;;;;;;13.27;60.07;100219.59;4963213;28;20562;-75
2021/10/31 09:07:17;;;;;;;29.25;26.10;;;;;;;13.34;60.13;100222.09;4952324;23;21269;-76
2021/10/31 09:09:42;;;;;;;30.80;26.75;;;;;;;13.34;59.99;100216.78;5003326;28;20040;-77
2021/10/31 09:12:09;;;;;;;32.88;26.73;;;;;;;13.33;59.58;100204.41;5004373;28;20037;-76
2021/10/31 09:14:34;;;;;;;28.88;24.58;;;;;;;13.35;59.83;100204.41;5003477;28;20081;-77
2021/10/31 09:17:01;;;;;;;31.50;26.00;;;;;;;13.38;59.88;100196.38;5004692;28;20033;-77
2021/10/31 09:19:26;;;;;;;30.58;25.88;;;;;;;13.41;60.11;100196.28;4958728;28;20058;-76
2021/10/31 09:21:52;;;;;;;33.35;27.40;;;;;;;13.44;59.65;100190.94;4993859;28;20030;-77
2021/10/31 09:24:17;;;;;;;31.85;25.77;;;;;;;13.52;59.66;100194.28;4993540;28;20042;-77
2021/10/31 09:26:42;;;;;;;31.48;26.10;;;;;;;13.55;59.80;100182.75;4993940;28;20404;-77
2021/10/31 09:29:08;;;;;;;30.80;26.75;;;;;;;13.59;59.51;100184.38;4994100;28;20622;-77
2021/10/31 09:31:34;;;;;;;31.67;27.27;;;;;;;13.65;59.40;100189.56;4976385;28;20533;-76
2021/10/31 09:33:59;;;;;;;34.92;27.17;;;;;;;13.71;59.11;100188.53;4993593;28;20040;-76
2021/10/31 09:36:25;;;;;;;34.70;28.58;;;;;;;13.74;59.53;100183.16;4993711;28;20049;-77
2021/10/31 09:38:53;;;;;;;32.85;28.85;;;;;;;13.75;59.27;100176.94;4993843;28;20688;-77
2021/10/31 09:41:18;;;;;;;33.10;27.42;;;;;;;13.79;58.71;100175.97;4976299;28;20038;-77
2021/10/31 09:43:52;;;;;;;35.30;27.50;;;;;;;13.89;58.62;100182.78;4975865;28;20041;-76
2021/10/31 09:46:19;;;;;;;29.77;25.55;;;;;;;13.98;58.75;100177.22;4993511;28;20180;-77
2021/10/31 09:48:44;;;;;;;31.95;25.92;;;;;;;14.07;58.57;100183.19;4974693;28;20073;-77
2021/10/31 09:51:10;;;;;;;33.28;27.85;;;;;;;14.24;58.41;100178.31;4975746;28;20093;-76
2021/10/31 09:53:35;;;;;;;34.50;26.25;;;;;;;14.39;58.26;100172.59;4975174;28;20049;-77
2021/10/31 09:56:02;;;;;;;30.15;25.58;;;;;;;14.53;58.16;100168.72;4993376;28;20050;-76
2021/10/31 09:58:40;;;;;;;30.27;25.63;;;;;;;14.64;58.17;100171.94;4993122;28;20136;-76
2021/10/31 10:01:22;;;;;;;32.97;27.63;;;;;;;14.67;57.23;100162.13;4993552;28;20049;-77
2021/10/31 10:03:55;;;;;;;28.75;25.42;;;;;;;14.75;57.50;100153.94;4990591;28;20478;-77
2021/10/31 10:06:23;;;;;;;31.92;26.73;;;;;;;14.87;57.50;100148.22;4990601;28;20042;-77
2021/10/31 10:09:09;;;;;;;30.70;26.42;;;;;;;14.93;57.11;100146.31;4993065;28;20061;-77
2021/10/31 10:11:37;;;;;;;29.75;24.58;;;;;;;15.04;56.73;100149.53;4964480;28;20035;-77
2021/10/31 10:14:07;;;;;;;31.70;26.10;;;;;;;15.03;56.43;100142.44;4993189;28;20041;-77
2021/10/31 10:16:33;;;;;;;29.80;25.27;;;;;;;15.06;56.67;100139.69;4975865;28;20049;-77
2021/10/31 10:18:58;;;;;;;32.50;25.77;;;;;;;15.10;56.35;100138.69;4993158;28;20026;-77
2021/10/31 10:21:25;;;;;;;28.65;25.55;;;;;;;15.16;56.47;100135.84;4993138;28;20398;-77
2021/10/31 10:23:59;;;;;;;30.92;25.30;;;;;;;15.28;56.11;100138.13;4980153;28;20039;-77
2021/10/31 10:26:32;;;;;;;27.52;24.40;;;;;;;15.43;56.47;100139.44;4990170;28;20067;-77
2021/10/31 10:29:10;;;;;;;28.00;24.98;;;;;;;15.56;55.70;100129.22;4993136;28;20053;-77
2021/10/31 10:31:36;;;;;;;30.33;25.38;;;;;;;15.69;55.67;100125.31;4993218;28;20104;-77
2021/10/31 10:34:01;;;;;;;27.50;23.77;;;;;;;15.78;55.31;100122.31;4992964;28;20038;-77
2021/10/31 10:36:27;;;;;;;29.83;24.73;;;;;;;15.87;55.23;100125.56;4992909;28;20038;-77
2021/10/31 10:39:03;;;;;;;27.98;24.42;;;;;;;15.94;54.68;100124.44;4992866;28;20117;-77
2021/10/31 10:41:40;;;;;;;26.80;23.52;;;;;;;15.95;54.19;100118.19;4993003;28;20061;-76
2021/10/31 10:44:29;;;;;;;29.90;25.50;;;;;;;15.95;54.31;100113.72;4988900;28;20050;-77
2021/10/31 10:47:16;;;;;;;28.83;24.23;;;;;;;15.95;54.17;100104.88;4991909;28;20038;-77
2021/10/31 10:49:44;;;;;;;26.67;23.63;;;;;;;15.91;54.62;100097.94;4990669;28;20536;-77
2021/10/31 10:52:23;;;;;;;29.50;25.77;;;;;;;15.90;54.09;100088.22;4992785;28;20393;-77
2021/10/31 10:54:59;;;;;;;28.88;25.80;;;;;;;15.94;54.84;100087.19;4992447;28;20094;-77
2021/10/31 10:57:26;;;;;;;26.60;23.73;;;;;;;15.99;54.93;100096.75;4988862;28;20110;-76
2021/10/31 10:59:53;;;;;;;30.27;25.75;;;;;;;16.05;54.78;100098.31;4989005;28;20049;-77
2021/10/31 11:02:19;;;;;;;27.88;24.90;;;;;;;16.06;54.43;100094.75;4988802;28;20080;-77
2021/10/31 11:04:50;;;;;;;28.63;25.08;;;;;;;16.06;54.46;100094.75;4992469;28;20471;-77
2021/10/31 11:07:15;;;;;;;27.73;24.70;;;;;;;16.06;54.44;100093.84;4992779;28;20076;-77
2021/10/31 11:09:47;;;;;;;29.23;23.13;;;;;;;16.09;54.22;100089.31;4996867;28;20121;-78
2021/10/31 11:12:32;;;;;;;26.17;23.48;;;;;;;16.06;53.09;100089.44;4992953;28;20040;-77
2021/10/31 11:15:11;;;;;;;27.92;23.30;;;;;;;16.03;53.83;100078.88;4995362;28;20069;-77
2021/10/31 11:17:37;;;;;;;28.02;24.60;;;;;;;16.11;53.88;100070.59;4975169;28;20077;-77